Time;durP1;ratioP1;P1;durP2;ratioP2;P2;SDS_P1;SDS_P2;PMS_P1;PMS_P2;Temp;Humidity;BMP_temperature;BMP_pressure;BME280_temperature;BME280_humidity;BME280_pressure;Samples;Min_cycle;Max_cycle;Signal;HPM_P1;HPM_P2
2022/05/11 00:01:14;;;;;;;47.00;23.23;;;;;;;15.20;65.47;100821.28;4983149;28;121287;-75
2022/05/11 00:03:40;;;;;;;46.60;23.75;;;;;;;15.21;65.58;100820.03;4993212;27;124529;-75
2022/05/11 00:06:06;;;;;;;44.78;23.33;;;;;;;15.15;65.51;100807.38;5003305;27;119635;-75
2022/05/11 00:08:32;;;;;;;53.72;23.60;;;;;;;15.21;65.93;100819.28;5002092;27;119484;-76
2022/05/11 00:10:58;;;;;;;49.70;24.10;;;;;;;15.12;65.58;100798.03;4992770;28;119877;-75
2022/05/11 00:13:23;;;;;;;52.00;22.27;;;;;;;15.17;65.65;100797.38;5010685;27;119858;-75
2022/05/11 00:15:49;;;;;;;53.25;23.80;;;;;;;15.23;65.76;100803.75;4993317;28;120952;-76
2022/05/11 00:18:15;;;;;;;51.83;23.00;;;;;;;15.22;65.97;100799.44;4993786;28;120427;-75
2022/05/11 00:20:40;;;;;;;48.75;23.33;;;;;;;15.22;66.04;100793.94;4991261;28;122049;-75
2022/05/11 00:23:06;;;;;;;44.60;23.95;;;;;;;15.21;65.65;100786.88;4998994;28;119894;-75
2022/05/11 00:25:35;;;;;;;49.83;23.83;;;;;;;15.20;65.51;100790.88;4980897;28;120140;-75
2022/05/11 00:28:03;;;;;;;48.22;24.80;;;;;;;15.15;65.80;100780.50;5007207;27;120225;-76
2022/05/11 00:30:31;;;;;;;50.22;23.88;;;;;;;15.17;65.44;100780.78;4998748;28;123283;-75
2022/05/11 00:32:58;;;;;;;45.72;22.13;;;;;;;15.16;65.76;100789.56;5009475;28;119905;-75
2022/05/11 00:35:29;;;;;;;47.30;23.48;;;;;;;14.99;66.01;100764.44;4992297;28;122356;-75
2022/05/11 00:37:54;;;;;;;50.50;23.58;;;;;;;15.05;65.90;100782.59;5002140;28;120492;-75
2022/05/11 00:40:22;;;;;;;45.28;22.45;;;;;;;15.12;65.90;100794.50;4977805;28;120981;-75
2022/05/11 00:42:47;;;;;;;48.35;22.13;;;;;;;15.11;65.65;100788.22;5004236;27;119921;-76
2022/05/11 00:45:13;;;;;;;48.78;22.95;;;;;;;15.10;65.88;100794.97;5014077;27;119693;-75
2022/05/11 00:49:33;;;;;;;50.47;23.08;;;;;;;15.12;65.77;100797.25;5009537;28;119985;-75
2022/05/11 00:50:48;;;;;;;44.58;22.20;;;;;;;15.11;66.30;100792.97;5001397;28;123996;-75
2022/05/11 00:53:13;;;;;;;44.88;23.20;;;;;;;15.10;66.00;100792.22;4991732;28;119529;-76
2022/05/11 00:55:44;;;;;;;44.20;22.13;;;;;;;15.08;65.67;100794.69;4991174;28;119689;-75
2022/05/11 00:58:15;;;;;;;46.08;23.08;;;;;;;15.07;66.13;100795.94;4987727;28;121443;-75
2022/05/11 01:00:43;;;;;;;49.85;24.27;;;;;;;15.05;66.07;100784.63;4980205;27;121046;-75
2022/05/11 01:03:22;;;;;;;54.42;23.60;;;;;;;15.04;66.17;100785.84;5003659;27;122871;-75
2022/05/11 01:05:48;;;;;;;51.90;23.67;;;;;;;15.00;66.14;100775.00;4997255;28;119773;-75
2022/05/11 01:08:16;;;;;;;51.88;23.60;;;;;;;14.97;66.22;100781.50;4980989;28;122630;-75
2022/05/11 01:10:43;;;;;;;46.30;22.25;;;;;;;15.00;66.28;100774.25;4996978;28;120085;-75
2022/05/11 01:13:12;;;;;;;47.00;23.00;;;;;;;15.02;66.40;100780.81;4998774;28;120068;-75
2022/05/11 01:15:38;;;;;;;54.40;24.33;;;;;;;15.03;66.37;100770.53;5009320;27;122009;-75
2022/05/11 01:18:07;;;;;;;53.42;23.73;;;;;;;15.02;66.68;100761.47;4992037;28;122842;-75
2022/05/11 01:20:36;;;;;;;46.42;23.60;;;;;;;14.98;66.51;100757.38;4994031;28;119680;-75
2022/05/11 01:23:17;;;;;;;56.58;25.17;;;;;;;15.03;66.66;100757.47;5009898;27;121840;-75
2022/05/11 01:25:43;;;;;;;58.97;24.23;;;;;;;15.04;66.27;100761.00;5002093;28;120069;-76
2022/05/11 01:28:14;;;;;;;51.08;24.50;;;;;;;15.07;66.39;100759.25;5007008;28;119988;-76
2022/05/11 01:30:43;;;;;;;53.85;24.60;;;;;;;15.08;66.64;100763.56;4989577;28;122140;-75
2022/05/11 01:33:13;;;;;;;54.42;26.38;;;;;;;15.08;nan;100758.03;5000949;28;119603;-75
2022/05/11 01:36:01;;;;;;;56.00;26.05;;;;;;;15.10;66.46;100763.84;4988085;28;122714;-75
2022/05/11 01:38:38;;;;;;;52.28;26.05;;;;;;;15.09;66.17;100748.50;5004050;28;121146;-75
2022/05/11 01:41:04;;;;;;;56.92;27.42;;;;;;;15.07;66.47;100743.47;5008426;28;120327;-76
2022/05/11 01:43:33;;;;;;;51.58;26.50;;;;;;;15.08;67.04;100747.75;4989590;28;121510;-76
2022/05/11 01:45:59;;;;;;;55.40;27.60;;;;;;;15.10;66.87;100761.06;4993509;28;124080;-75
2022/05/11 01:48:26;;;;;;;61.03;27.42;;;;;;;15.11;66.58;100751.53;4990937;28;119857;-75
2022/05/11 01:50:52;;;;;;;51.22;26.55;;;;;;;15.13;66.50;100752.56;4992276;28;124022;-75
2022/05/11 01:53:19;;;;;;;54.10;27.30;;;;;;;15.15;66.61;100743.84;4998934;28;119540;-75
2022/05/11 01:55:44;;;;;;;54.45;26.73;;;;;;;15.16;66.65;100748.88;5007964;28;119872;-75
2022/05/11 01:58:14;;;;;;;53.00;27.05;;;;;;;15.12;66.86;100734.47;4989111;28;122652;-75
2022/05/11 02:00:42;;;;;;;59.20;28.20;;;;;;;15.20;66.55;100729.34;4988644;28;120276;-76
2022/05/11 02:03:08;;;;;;;56.55;28.67;;;;;;;15.13;67.04;100715.91;4990720;28;120005;-75
2022/05/11 02:08:18;;;;;;;;;;;;;;;15.17;66.64;100714.47;5001054;28;122628;-75
2022/05/11 02:10:43;;;;;;;58.40;29.55;;;;;;;15.18;66.82;100713.25;5009583;28;123106;-75
2022/05/11 02:13:09;;;;;;;63.90;29.95;;;;;;;15.18;67.14;100710.47;4992200;28;119869;-75
2022/05/11 02:15:36;;;;;;;57.88;30.50;;;;;;;15.22;67.20;100716.56;4989879;28;122964;-75
2022/05/11 02:18:02;;;;;;;58.15;29.70;;;;;;;15.24;67.34;100713.31;5003874;28;120584;-75
2022/05/11 02:20:28;;;;;;;72.22;30.58;;;;;;;15.25;67.23;100706.53;4989084;28;120340;-75
2022/05/11 02:22:54;;;;;;;66.85;31.17;;;;;;;15.21;67.39;100714.28;4975568;28;122518;-75
2022/05/11 02:25:20;;;;;;;66.78;32.00;;;;;;;15.28;67.25;100725.69;5003839;28;121211;-76
2022/05/11 02:27:51;;;;;;;61.00;29.90;;;;;;;15.27;67.43;100721.41;5009403;28;119714;-75
2022/05/11 02:30:23;;;;;;;61.83;30.70;;;;;;;15.32;67.46;100725.47;4987773;28;121460;-75
2022/05/11 02:32:49;;;;;;;63.50;30.80;;;;;;;15.27;67.40;100720.63;4995189;28;119979;-76
2022/05/11 02:35:18;;;;;;;60.70;31.10;;;;;;;15.27;67.12;100721.41;4988190;28;121732;-75
2022/05/11 02:37:45;;;;;;;61.30;29.58;;;;;;;15.33;67.40;100733.28;4970048;28;122753;-76
2022/05/11 02:40:13;;;;;;;65.13;30.75;;;;;;;15.30;67.11;100734.25;4983333;28;120020;-75
2022/05/11 02:42:40;;;;;;;58.33;29.25;;;;;;;15.34;67.30;100750.63;5003991;27;120234;-75
2022/05/11 02:45:10;;;;;;;64.05;31.63;;;;;;;15.28;67.05;100736.72;4988627;28;125739;-75
2022/05/11 02:47:36;;;;;;;57.53;29.85;;;;;;;15.33;67.21;100733.28;5003092;28;119851;-75
2022/05/11 02:50:04;;;;;;;62.15;29.48;;;;;;;15.33;67.22;100747.09;4994137;28;121795;-75
2022/05/11 02:52:30;;;;;;;57.80;30.52;;;;;;;15.25;67.20;100732.16;5004716;28;120132;-76
2022/05/11 02:54:56;;;;;;;58.08;30.42;;;;;;;15.33;66.75;100730.50;5000553;28;121915;-75
2022/05/11 02:57:21;;;;;;;62.22;31.33;;;;;;;15.33;67.09;100730.50;5001142;27;120393;-76
2022/05/11 02:59:49;;;;;;;58.50;29.05;;;;;;;15.29;67.00;100718.91;4994426;28;119974;-75
2022/05/11 03:02:19;;;;;;;58.67;30.88;;;;;;;15.29;67.05;100712.63;5003177;28;122405;-76
2022/05/11 03:04:44;;;;;;;64.55;32.25;;;;;;;15.31;67.28;100707.38;4985770;28;119801;-76
2022/05/11 03:07:10;;;;;;;62.15;30.55;;;;;;;15.35;67.37;100711.44;4990125;28;121385;-75
2022/05/11 03:09:38;;;;;;;63.50;32.08;;;;;;;15.36;67.42;100718.50;4970833;28;121021;-75
2022/05/11 03:12:04;;;;;;;59.58;30.38;;;;;;;15.34;67.22;100706.41;4991493;28;120382;-75
2022/05/11 03:14:30;;;;;;;64.78;32.30;;;;;;;15.35;67.47;100703.16;5015123;27;120411;-75
2022/05/11 03:16:56;;;;;;;56.85;29.60;;;;;;;15.29;67.00;100699.56;4976146;28;119901;-75
2022/05/11 03:19:21;;;;;;;66.57;33.22;;;;;;;15.27;67.21;100693.75;5004840;28;120221;-75
2022/05/11 03:21:47;;;;;;;63.85;32.47;;;;;;;15.37;67.58;100699.91;4998860;28;122049;-75
2022/05/11 03:24:13;;;;;;;65.68;31.70;;;;;;;15.34;66.92;100684.28;5004999;28;119846;-76
2022/05/11 03:26:39;;;;;;;64.95;30.90;;;;;;;15.40;67.22;100695.44;5003571;27;119900;-75
2022/05/11 03:29:05;;;;;;;61.40;30.65;;;;;;;15.36;67.32;100692.84;5002083;28;119511;-75
2022/05/11 03:31:33;;;;;;;65.45;31.55;;;;;;;15.35;67.20;100689.34;4990317;28;122756;-75
2022/05/11 03:36:42;;;;;;;63.00;31.40;;;;;;;15.44;67.24;100704.28;5003302;28;121165;-75
2022/05/11 03:39:11;;;;;;;65.47;32.22;;;;;;;15.31;66.98;100674.97;4999746;28;119815;-75
2022/05/11 03:41:37;;;;;;;63.15;31.05;;;;;;;15.40;67.08;100681.63;4974730;28;122470;-75
2022/05/11 03:44:03;;;;;;;65.45;32.13;;;;;;;15.39;67.05;100686.38;5008793;28;119830;-75
2022/05/11 03:46:28;;;;;;;61.13;31.85;;;;;;;15.44;67.04;100691.22;4991739;28;119855;-75
2022/05/11 03:48:54;;;;;;;60.60;31.50;;;;;;;15.39;66.61;100691.16;5001985;28;119477;-75
2022/05/11 03:51:19;;;;;;;65.63;32.85;;;;;;;15.41;66.96;100683.13;4979037;28;123032;-76
2022/05/11 03:53:45;;;;;;;61.35;33.03;;;;;;;15.39;67.15;100680.88;4995502;27;121112;-75
2022/05/11 03:56:11;;;;;;;62.13;31.58;;;;;;;15.41;67.09;100672.84;5003266;28;119698;-75
2022/05/11 03:58:36;;;;;;;66.65;32.47;;;;;;;15.46;67.36;100674.16;5008520;28;119806;-75
2022/05/11 04:01:02;;;;;;;62.25;32.60;;;;;;;15.48;67.65;100666.88;5008118;28;119729;-75
2022/05/11 04:03:27;;;;;;;65.03;33.25;;;;;;;15.52;67.41;100677.72;5007129;28;119819;-75
2022/05/11 04:05:55;;;;;;;68.85;33.30;;;;;;;15.57;67.71;100674.28;4995568;28;119973;-75
2022/05/11 04:08:21;;;;;;;63.65;32.83;;;;;;;15.50;67.91;100664.41;4999557;28;120112;-76
2022/05/11 04:10:52;;;;;;;64.57;32.78;;;;;;;15.62;67.34;100676.41;4999858;28;121275;-75
2022/05/11 04:13:18;;;;;;;69.30;34.47;;;;;;;15.60;67.57;100651.97;5007859;28;119747;-76
2022/05/11 04:15:44;;;;;;;68.68;33.90;;;;;;;15.66;67.38;100643.75;5007024;28;122632;-75
2022/05/11 04:18:09;;;;;;;63.53;32.30;;;;;;;15.70;67.33;100638.00;4977374;28;120034;-75
2022/05/11 04:20:35;;;;;;;70.00;33.88;;;;;;;15.76;67.72;100645.13;5008905;28;120513;-75
2022/05/11 04:23:00;;;;;;;65.85;32.67;;;;;;;15.78;67.54;100648.16;4989512;28;122833;-76
2022/05/11 04:25:26;;;;;;;70.68;34.33;;;;;;;15.82;67.68;100636.88;4989420;28;120658;-75
2022/05/11 04:27:54;;;;;;;67.65;34.13;;;;;;;15.81;67.46;100636.09;4990898;28;120181;-75
2022/05/11 04:30:26;;;;;;;64.22;33.97;;;;;;;15.89;67.63;100639.97;4973557;28;121500;-74
2022/05/11 04:32:53;;;;;;;67.53;32.72;;;;;;;15.90;67.15;100630.44;4999695;28;119582;-76
2022/05/11 04:35:19;;;;;;;61.50;32.97;;;;;;;15.90;67.35;100627.66;4990837;28;121987;-76
2022/05/11 04:37:44;;;;;;;60.47;32.75;;;;;;;15.91;67.13;100637.47;5007584;28;123294;-75
2022/05/11 04:40:15;;;;;;;61.35;33.03;;;;;;;15.94;67.53;100632.97;4988291;28;119691;-75
2022/05/11 04:42:44;;;;;;;68.85;33.80;;;;;;;15.96;67.35;100631.25;5002179;28;120463;-75
2022/05/11 04:45:10;;;;;;;68.70;33.33;;;;;;;16.00;67.55;100630.25;5007080;28;119672;-76
2022/05/11 04:47:35;;;;;;;68.00;32.92;;;;;;;16.03;67.34;100630.03;4999132;28;121062;-75
2022/05/11 04:50:01;;;;;;;61.92;33.15;;;;;;;16.05;67.79;100624.78;5005596;28;120118;-76
2022/05/11 04:52:26;;;;;;;62.65;33.05;;;;;;;16.03;67.44;100604.38;5000541;28;119664;-76
2022/05/11 04:54:52;;;;;;;66.35;32.05;;;;;;;16.15;67.65;100617.06;4990968;28;121575;-75
2022/05/11 04:57:21;;;;;;;65.10;31.92;;;;;;;16.20;67.43;100619.13;4970694;28;123006;-76
2022/05/11 04:59:49;;;;;;;58.08;30.90;;;;;;;16.12;67.42;100585.63;4985694;28;120614;-75
2022/05/11 05:02:18;;;;;;;61.13;32.95;;;;;;;16.23;67.21;100596.75;5002171;28;120206;-76
2022/05/11 05:04:44;;;;;;;59.03;32.42;;;;;;;16.27;67.29;100604.84;4991780;28;120057;-76
2022/05/11 05:07:10;;;;;;;60.83;33.30;;;;;;;16.29;67.11;100607.88;4991408;28;120471;-75
2022/05/11 05:09:35;;;;;;;59.88;31.48;;;;;;;16.32;67.26;100606.13;5006028;28;120634;-75
2022/05/11 05:12:01;;;;;;;57.97;31.60;;;;;;;16.35;67.32;100605.16;4991724;28;119793;-76
2022/05/11 05:14:27;;;;;;;63.65;32.55;;;;;;;16.34;67.36;100598.88;4993782;28;121798;-75
2022/05/11 05:16:53;;;;;;;51.60;28.52;;;;;;;16.42;67.43;100594.38;4993180;28;122173;-75
2022/05/11 05:19:19;;;;;;;55.78;31.48;;;;;;;16.48;67.22;100600.72;5006406;28;119872;-76
2022/05/11 05:21:48;;;;;;;58.92;31.35;;;;;;;16.45;67.16;100587.84;5014299;27;120181;-75
2022/05/11 05:24:13;;;;;;;64.55;31.10;;;;;;;16.51;67.25;100588.66;4997155;28;119543;-75
2022/05/11 05:26:39;;;;;;;57.22;30.40;;;;;;;16.66;67.25;100605.16;5009744;28;120378;-76
2022/05/11 05:31:48;;;;;;;;;;;;;;;16.69;66.87;100586.78;4999428;28;120182;-75
2022/05/11 05:34:14;;;;;;;60.47;30.85;;;;;;;16.69;66.93;100581.25;4992449;28;119914;-76
2022/05/11 05:36:41;;;;;;;53.03;29.25;;;;;;;16.67;66.78;100581.72;5007625;27;120435;-75
2022/05/11 05:39:06;;;;;;;58.83;31.00;;;;;;;16.75;67.11;100596.63;4992077;28;120008;-75
2022/05/11 05:41:33;;;;;;;57.53;30.00;;;;;;;16.72;66.97;100586.53;5009060;28;122109;-75
2022/05/11 05:43:58;;;;;;;52.58;29.75;;;;;;;16.75;67.33;100574.47;5009362;27;121439;-75
2022/05/11 05:46:25;;;;;;;55.13;30.52;;;;;;;16.95;67.54;100581.88;5022412;27;120162;-75
2022/05/11 05:48:51;;;;;;;55.45;29.70;;;;;;;17.05;67.34;100574.13;5015942;27;120423;-75
2022/05/11 05:51:19;;;;;;;51.47;30.38;;;;;;;17.15;67.13;100578.19;5001384;28;119818;-75
2022/05/11 05:53:45;;;;;;;50.88;28.63;;;;;;;17.15;67.07;100578.94;4988705;28;121897;-76
2022/05/11 05:56:12;;;;;;;50.10;27.88;;;;;;;17.24;66.75;100579.97;5012707;27;119927;-75
2022/05/11 05:58:38;;;;;;;42.08;25.00;;;;;;;17.32;66.78;100579.00;5010840;27;119872;-75
2022/05/11 06:01:05;;;;;;;51.90;28.30;;;;;;;17.38;66.61;100565.16;5002235;28;121944;-76
2022/05/11 06:03:33;;;;;;;46.95;28.02;;;;;;;17.42;66.43;100569.19;4987037;28;123348;-75
2022/05/11 06:05:58;;;;;;;46.13;26.48;;;;;;;17.47;66.20;100568.44;5010080;27;119734;-75
2022/05/11 06:08:24;;;;;;;44.50;25.35;;;;;;;17.52;65.98;100569.75;5001332;27;123003;-76
2022/05/11 06:10:53;;;;;;;43.22;26.75;;;;;;;17.54;65.97;100564.44;4985052;27;120125;-76
2022/05/11 06:13:22;;;;;;;41.92;25.35;;;;;;;17.53;66.00;100560.16;5012819;27;120419;-76
2022/05/11 06:15:53;;;;;;;37.88;23.85;;;;;;;17.61;65.60;100563.19;5030645;27;120529;-76
2022/05/11 06:18:19;;;;;;;45.38;23.40;;;;;;;17.64;65.36;100568.47;5027371;27;119734;-75
2022/05/11 06:20:45;;;;;;;41.83;23.00;;;;;;;17.64;65.67;100554.63;5008704;27;122097;-75
2022/05/11 06:23:11;;;;;;;44.95;23.10;;;;;;;17.76;65.45;100567.28;4974843;28;123060;-76
2022/05/11 06:25:38;;;;;;;37.60;22.40;;;;;;;17.85;65.74;100571.81;5014891;28;120340;-75
2022/05/11 06:28:07;;;;;;;39.03;21.85;;;;;;;17.91;65.26;100569.81;4995899;28;121404;-75
2022/05/11 06:30:34;;;;;;;35.47;21.38;;;;;;;17.95;64.94;100569.53;4989843;28;120074;-75
2022/05/11 06:33:02;;;;;;;35.90;20.75;;;;;;;17.96;64.87;100557.94;5002825;27;121816;-75
2022/05/11 06:35:28;;;;;;;35.67;21.92;;;;;;;17.99;64.89;100551.41;5015737;27;120410;-75
2022/05/11 06:37:54;;;;;;;41.70;22.08;;;;;;;18.02;64.88;100544.09;4975990;27;120888;-76
2022/05/11 06:40:21;;;;;;;38.15;22.25;;;;;;;18.10;64.61;100547.84;4987513;27;122045;-75
2022/05/11 06:42:49;;;;;;;37.05;21.45;;;;;;;18.15;64.45;100544.31;4978722;27;122996;-75
2022/05/11 06:45:15;;;;;;;36.30;20.77;;;;;;;18.20;64.39;100540.75;5005481;27;120168;-76
2022/05/11 06:47:41;;;;;;;34.25;20.30;;;;;;;18.26;64.15;100552.66;5002188;27;121759;-76
2022/05/11 06:50:08;;;;;;;36.20;20.23;;;;;;;18.33;64.15;100543.78;4981533;27;119909;-76
2022/05/11 06:52:34;;;;;;;36.17;20.58;;;;;;;18.38;64.09;100537.47;5019765;27;120285;-76
2022/05/11 07:00:31;;;;;;;31.27;20.23;;;;;;;18.68;63.26;100528.56;4983853;28;122155;-75
2022/05/11 07:02:57;;;;;;;35.88;20.17;;;;;;;18.73;63.36;100525.03;5016956;27;120191;-75
2022/05/11 07:05:25;;;;;;;34.58;20.52;;;;;;;18.83;63.40;100525.50;4978615;27;119851;-75
2022/05/11 07:07:52;;;;;;;37.85;20.20;;;;;;;18.94;63.16;100533.81;4982500;27;122034;-75
2022/05/11 07:10:17;;;;;;;28.55;17.88;;;;;;;18.97;63.00;100527.22;4982055;27;123519;-76
2022/05/11 07:12:46;;;;;;;34.65;19.05;;;;;;;18.98;62.88;100525.94;4972323;27;121818;-75
2022/05/11 07:15:13;;;;;;;30.85;19.20;;;;;;;19.08;62.90;100515.28;5000019;27;119995;-75
2022/05/11 07:17:40;;;;;;;28.98;17.00;;;;;;;19.12;63.02;100508.16;4981119;28;119569;-76
2022/05/11 07:20:12;;;;;;;34.13;19.20;;;;;;;19.18;62.60;100510.94;4989112;28;121565;-76
2022/05/11 07:22:39;;;;;;;27.38;18.02;;;;;;;19.22;62.51;100494.75;5001541;28;120117;-76
2022/05/11 07:25:06;;;;;;;29.35;17.17;;;;;;;19.24;62.67;100484.59;4989039;27;120006;-75
2022/05/11 07:27:31;;;;;;;28.83;18.42;;;;;;;19.33;62.60;100500.97;4998245;27;121212;-75
2022/05/11 07:29:57;;;;;;;27.88;17.73;;;;;;;19.37;62.28;100483.25;4968832;27;121215;-75
2022/05/11 07:32:23;;;;;;;31.40;17.75;;;;;;;19.39;62.76;100495.38;5005625;27;119844;-76
2022/05/11 07:34:51;;;;;;;30.23;17.60;;;;;;;19.36;62.55;100485.28;4994746;27;120729;-75
2022/05/11 07:37:17;;;;;;;26.50;16.90;;;;;;;19.48;62.43;100499.88;5005591;27;119852;-76
2022/05/11 07:39:43;;;;;;;29.38;17.05;;;;;;;19.49;62.07;100493.03;5013322;27;120004;-76
2022/05/11 07:42:12;;;;;;;26.23;15.68;;;;;;;19.50;62.16;100481.38;4998419;27;122171;-76
2022/05/11 07:44:38;;;;;;;25.65;15.68;;;;;;;19.58;62.08;100478.81;4979250;28;119943;-76
2022/05/11 07:47:04;;;;;;;29.85;17.38;;;;;;;19.67;62.17;100480.53;4991947;27;119797;-75
2022/05/11 07:49:30;;;;;;;22.83;15.15;;;;;;;19.73;61.98;100479.22;4992853;28;122138;-75
2022/05/11 07:51:55;;;;;;;24.63;14.93;;;;;;;19.76;61.27;100480.97;4971501;28;120029;-76
2022/05/11 07:54:21;;;;;;;21.45;13.07;;;;;;;19.75;61.09;100478.69;4978605;28;122456;-76
2022/05/11 08:02:17;;;;;;;21.73;13.57;;;;;;;19.92;61.21;100474.50;5003466;27;120058;-75
2022/05/11 08:04:42;;;;;;;24.05;14.10;;;;;;;19.94;60.86;100473.97;4996028;27;121145;-75
2022/05/11 08:07:09;;;;;;;24.85;14.75;;;;;;;20.02;60.52;100483.25;5012950;27;120556;-76
2022/05/11 08:09:35;;;;;;;20.83;12.73;;;;;;;20.06;60.38;100482.97;5002922;28;120109;-75
2022/05/11 08:12:00;;;;;;;22.77;14.27;;;;;;;20.11;60.20;100469.00;5015862;27;119814;-76
2022/05/11 08:14:26;;;;;;;22.77;13.25;;;;;;;20.13;60.13;100469.25;5012519;27;119706;-76
2022/05/11 08:16:52;;;;;;;24.25;14.00;;;;;;;20.11;60.00;100441.16;4968146;27;120150;-76
2022/05/11 08:19:22;;;;;;;25.65;13.02;;;;;;;20.20;59.92;100451.94;5008223;27;120706;-75
2022/05/11 08:21:49;;;;;;;22.70;14.30;;;;;;;20.27;59.76;100460.97;4974923;27;122993;-75
2022/05/11 08:24:15;;;;;;;20.50;13.52;;;;;;;20.25;59.53;100453.16;5001860;27;120281;-75
2022/05/11 08:26:42;;;;;;;18.98;13.25;;;;;;;20.29;59.24;100459.19;5012962;27;121962;-75
2022/05/11 08:29:09;;;;;;;20.05;13.95;;;;;;;20.31;59.26;100455.88;4993122;27;122363;-75
2022/05/11 08:34:19;;;;;;;20.90;13.00;;;;;;;20.29;59.12;100447.28;5014298;27;123030;-76
2022/05/11 08:36:48;;;;;;;22.13;12.75;;;;;;;20.44;59.03;100456.75;5008404;27;121650;-75
2022/05/11 08:39:14;;;;;;;24.23;13.38;;;;;;;20.46;58.51;100456.25;4958606;27;122543;-76
2022/05/11 08:41:45;;;;;;;20.40;12.75;;;;;;;20.48;58.09;100450.91;5016124;27;120141;-76
2022/05/11 08:44:26;;;;;;;22.35;13.88;;;;;;;20.49;57.99;100449.63;4986965;28;120022;-75
2022/05/11 08:47:15;;;;;;;22.52;12.98;;;;;;;20.52;58.67;100445.78;4990671;28;120388;-75
2022/05/11 08:49:55;;;;;;;18.90;11.48;;;;;;;20.60;58.06;100457.84;4977947;28;121333;-75
2022/05/11 08:52:35;;;;;;;17.92;11.27;;;;;;;20.57;57.77;100447.72;4926633;28;119846;-75
2022/05/11 08:55:17;;;;;;;26.75;12.05;;;;;;;20.57;57.96;100442.16;4989826;28;121998;-75
2022/05/11 08:57:43;;;;;;;19.83;10.75;;;;;;;20.75;57.60;100457.41;4970226;28;120981;-76
2022/05/11 09:00:11;;;;;;;24.90;11.88;;;;;;;20.77;57.36;100460.41;5013679;28;120148;-75
2022/05/11 09:02:54;;;;;;;20.15;10.52;;;;;;;20.83;56.94;100459.06;4981764;28;120240;-76
2022/05/11 09:05:26;;;;;;;18.35;10.98;;;;;;;20.83;56.66;100452.75;4989294;28;120138;-75
2022/05/11 09:07:54;;;;;;;21.25;10.55;;;;;;;20.78;56.77;100450.75;4988691;27;122293;-75
2022/05/11 09:10:28;;;;;;;21.10;10.88;;;;;;;20.76;56.71;100445.72;4969955;28;123021;-75
2022/05/11 09:13:06;;;;;;;19.67;10.27;;;;;;;20.75;56.88;100437.88;4988289;27;120352;-75
2022/05/11 09:16:01;;;;;;;22.48;10.90;;;;;;;20.81;57.32;100427.41;4988517;28;122517;-75
2022/05/11 09:18:30;;;;;;;17.23;8.55;;;;;;;20.82;56.55;100423.38;4986314;28;123200;-75
2022/05/11 09:20:56;;;;;;;17.90;9.40;;;;;;;20.88;56.30;100426.06;4970983;28;120489;-75
2022/05/11 09:23:43;;;;;;;18.58;8.38;;;;;;;20.80;55.55;100432.22;4992486;28;120314;-75
2022/05/11 09:26:14;;;;;;;16.15;8.00;;;;;;;20.82;55.28;100445.66;4972433;28;119801;-76
2022/05/11 09:28:45;;;;;;;17.40;8.95;;;;;;;20.78;55.68;100442.41;5005892;28;119657;-76
2022/05/11 09:31:17;;;;;;;16.42;7.60;;;;;;;20.81;55.90;100450.47;4989476;28;120551;-75
2022/05/11 09:33:57;;;;;;;15.07;7.55;;;;;;;20.86;55.94;100457.25;4996627;28;120544;-75
2022/05/11 09:36:51;;;;;;;18.75;8.43;;;;;;;20.87;54.81;100469.16;4971044;28;122902;-75
2022/05/11 09:39:18;;;;;;;16.23;7.78;;;;;;;20.81;54.82;100461.59;4976193;28;124053;-76
2022/05/11 09:41:51;;;;;;;17.60;7.82;;;;;;;20.78;55.02;100462.66;4986903;27;119761;-75
2022/05/11 09:44:21;;;;;;;19.27;8.15;;;;;;;20.80;55.15;100456.56;4987483;28;120168;-76
2022/05/11 09:46:47;;;;;;;17.38;8.25;;;;;;;20.86;55.05;100462.09;4975397;28;122858;-75
2022/05/11 09:49:15;;;;;;;18.80;7.50;;;;;;;20.89;54.45;100452.66;4970649;28;121991;-75
2022/05/11 09:51:50;;;;;;;20.98;8.48;;;;;;;20.90;54.20;100445.81;4987728;27;120494;-75
2022/05/11 09:54:18;;;;;;;17.15;7.43;;;;;;;20.88;54.04;100437.22;5005132;27;119638;-75
2022/05/11 09:56:57;;;;;;;22.10;7.95;;;;;;;20.88;53.92;100428.84;4981388;28;120597;-75
2022/05/11 09:59:31;;;;;;;17.02;7.43;;;;;;;20.89;53.78;100422.00;5001376;28;120478;-75
2022/05/11 10:02:35;;;;;;;20.25;7.82;;;;;;;20.94;54.03;100419.13;4976829;28;119996;-75
2022/05/11 10:05:01;;;;;;;20.67;7.60;;;;;;;21.01;53.82;100412.94;4986889;28;120220;-76
2022/05/11 10:07:32;;;;;;;18.33;7.85;;;;;;;21.13;53.56;100400.34;4984654;27;122094;-75
2022/05/11 10:10:07;;;;;;;19.17;6.90;;;;;;;21.27;53.37;100403.94;5007048;27;121302;-75
2022/05/11 10:12:37;;;;;;;17.75;6.93;;;;;;;21.33;52.48;100410.19;4983099;28;121968;-76
2022/05/11 10:24:37;;;;;;;16.23;6.43;;;;;;;21.57;51.90;100423.25;5002040;27;120438;-76
2022/05/11 10:27:13;;;;;;;16.13;6.28;;;;;;;21.62;51.48;100418.84;4988287;28;123736;-76
2022/05/11 10:29:59;;;;;;;15.18;5.55;;;;;;;21.68;50.49;100399.97;4967612;28;123977;-75
2022/05/11 10:32:31;;;;;;;17.52;5.88;;;;;;;21.73;50.34;100404.69;4960723;28;119890;-75
2022/05/11 10:35:11;;;;;;;15.02;5.47;;;;;;;21.76;49.42;100392.44;4992914;28;120504;-75
2022/05/11 10:37:52;;;;;;;15.98;8.48;;;;;;;21.82;49.91;100403.53;5006877;28;120384;-76
2022/05/11 10:40:24;;;;;;;16.67;5.57;;;;;;;21.80;49.42;100401.28;4986172;28;122049;-76
2022/05/11 10:43:12;;;;;;;11.38;4.43;;;;;;;21.77;49.75;100380.03;4989796;28;120340;-75
2022/05/11 10:45:48;;;;;;;15.05;4.97;;;;;;;21.84;48.92;100387.00;4987667;28;120660;-75
2022/05/11 10:48:28;;;;;;;13.93;4.82;;;;;;;21.84;49.17;100381.41;5014735;27;120475;-75
2022/05/11 10:51:06;;;;;;;19.02;5.30;;;;;;;21.82;49.22;100381.94;5001976;27;121125;-76
2022/05/11 10:53:57;;;;;;;14.55;5.18;;;;;;;21.76;49.05;100390.41;4983498;28;119988;-76
2022/05/11 10:56:47;;;;;;;16.65;5.88;;;;;;;21.67;49.31;100388.03;5007588;28;122408;-76
2022/05/11 10:59:45;;;;;;;15.13;5.90;;;;;;;21.61;49.54;100409.72;5001908;28;119742;-75
2022/05/11 11:02:29;;;;;;;12.55;6.22;;;;;;;21.61;49.86;100420.88;4988657;28;121964;-75
2022/05/11 11:05:10;;;;;;;18.67;6.20;;;;;;;21.58;49.78;100418.41;5004622;28;121975;-74
2022/05/11 11:07:45;;;;;;;16.10;7.47;;;;;;;21.49;50.17;100425.13;5003294;27;120248;-75
2022/05/11 11:10:22;;;;;;;18.55;8.07;;;;;;;21.53;50.73;100422.81;5021194;27;119999;-75
2022/05/11 11:13:00;;;;;;;17.50;7.95;;;;;;;21.51;50.41;100422.56;5003857;27;120092;-75
2022/05/11 11:15:32;;;;;;;20.10;7.90;;;;;;;21.39;50.63;100416.44;4999231;28;122156;-75
2022/05/11 11:17:59;;;;;;;22.10;8.77;;;;;;;21.49;50.77;100429.97;4989591;28;120022;-75
2022/05/11 11:20:26;;;;;;;16.52;8.30;;;;;;;21.45;50.97;100436.63;5012611;27;119978;-75
2022/05/11 11:23:17;;;;;;;18.90;8.10;;;;;;;21.39;51.29;100432.41;5009600;27;120123;-75
2022/05/11 11:25:57;;;;;;;20.38;8.52;;;;;;;21.26;51.64;100421.97;5013107;27;121389;-75
2022/05/11 11:28:34;;;;;;;18.80;8.18;;;;;;;21.26;51.65;100444.28;5010814;27;121325;-76
2022/05/11 11:30:59;;;;;;;17.88;6.90;;;;;;;21.19;51.46;100453.22;5025208;27;119947;-75
2022/05/11 11:33:36;;;;;;;21.70;8.18;;;;;;;21.09;50.65;100457.69;4999566;27;120655;-75
2022/05/11 11:36:05;;;;;;;29.75;7.97;;;;;;;20.91;50.93;100464.03;5007569;27;120884;-75
2022/05/11 11:38:40;;;;;;;22.95;6.72;;;;;;;20.83;50.89;100464.66;4994924;27;120442;-75
2022/05/11 11:41:09;;;;;;;19.23;6.88;;;;;;;20.75;51.23;100469.28;4994272;27;122997;-75
2022/05/11 11:43:45;;;;;;;18.50;6.63;;;;;;;20.75;51.33;100462.97;5024445;27;120168;-75
2022/05/11 11:46:29;;;;;;;18.85;6.75;;;;;;;20.74;51.29;100444.75;4995412;27;123710;-75